Time;durP1;ratioP1;P1;durP2;ratioP2;P2;SDS_P1;SDS_P2;PMS_P1;PMS_P2;Temp;Humidity;BMP_temperature;BMP_pressure;BME280_temperature;BME280_humidity;BME280_pressure;Samples;Min_cycle;Max_cycle;Signal;HPM_P1;HPM_P2
2022/01/17 00:01:14;;;;;;;;;;;;;;;5.23;53.38;99735.47;4483370;32;34352;-90
2022/01/17 00:03:42;;;;;;;;;;;;;;;6.42;50.32;99724.03;4483028;32;35296;-92
2022/01/17 00:06:10;;;;;;;;;;;;;;;6.19;51.27;99714.56;4481805;32;33354;-84
2022/01/17 00:08:41;;;;;;;;;;;;;;;6.39;50.72;99705.00;4482080;32;35016;-84
2022/01/17 00:11:09;;;;;;;;;;;;;;;6.37;50.31;99702.38;4470073;32;33890;-86
2022/01/17 00:13:38;;;;;;;;;;;;;;;5.82;52.00;99703.63;4482667;32;35226;-93
2022/01/17 00:16:11;;;;;;;;;;;;;;;5.70;52.76;99698.00;4483106;32;33446;-90
2022/01/17 00:21:06;;;;;;;;;;;;;;;6.22;51.67;99701.81;4482623;32;34102;-91
2022/01/17 00:23:33;;;;;;;;;;;;;;;6.17;51.58;99700.72;4477896;32;34497;-85
2022/01/17 00:26:00;;;;;;;;;;;;;;;5.51;52.94;99692.94;4482465;32;33728;-93
2022/01/17 00:28:27;;;;;;;;;;;;;;;5.68;52.67;99699.62;4482546;32;33810;-85
2022/01/17 00:30:55;;;;;;;;;;;;;;;5.07;54.65;99699.62;4482783;32;34379;-85
2022/01/17 00:33:22;;;;;;;;;;;;;;;4.59;56.37;99704.41;4482346;32;34310;-88
2022/01/17 00:35:49;;;;;;;;;;;;;;;4.55;56.41;99700.81;4481921;32;33722;-83
2022/01/17 00:38:16;;;;;;;;;;;;;;;5.57;53.50;99695.75;4482847;32;33968;-90
2022/01/17 00:40:44;;;;;;;;;;;;;;;6.54;50.65;99703.87;4482750;32;35225;-90
2022/01/17 00:43:12;;;;;;;;;;;;;;;5.57;52.97;99699.22;4481867;32;35162;-84
2022/01/17 00:45:41;;;;;;;;;;;;;;;6.19;51.61;99714.56;4482964;32;34230;-85
2022/01/17 00:48:09;;;;;;;;;;;;;;;5.44;53.45;99714.06;4482716;32;34988;-89
2022/01/17 00:50:40;;;;;;;;;;;;;;;6.01;51.79;99697.56;4482516;32;34292;-89
2022/01/17 00:53:07;;;;;;;;;;;;;;;5.16;54.40;99705.19;4481118;32;34910;-83
2022/01/17 00:55:36;;;;;;;;;;;;;;;6.57;50.61;99708.28;4481913;32;33589;-92
2022/01/17 00:58:04;;;;;;;;;;;;;;;6.15;51.27;99710.97;4481277;32;34400;-84
2022/01/17 01:00:31;;;;;;;;;;;;;;;4.91;54.95;99717.78;4482305;32;34212;-83
2022/01/17 01:02:58;;;;;;;;;;;;;;;5.52;53.17;99713.56;4481207;32;34237;-84
2022/01/17 01:05:26;;;;;;;;;;;;;;;5.50;53.25;99709.19;4471784;32;33028;-84
2022/01/17 01:07:54;;;;;;;;;;;;;;;6.61;50.77;99710.16;4471240;32;35092;-91
2022/01/17 01:10:21;;;;;;;;;;;;;;;5.36;53.60;99719.75;4480658;32;34053;-92
2022/01/17 01:12:49;;;;;;;;;;;;;;;5.99;51.89;99711.22;4478159;32;34329;-90
2022/01/17 01:15:20;;;;;;;;;;;;;;;5.95;52.15;99709.34;4477667;32;33454;-85
2022/01/17 01:17:53;;;;;;;;;;;;;;;5.97;51.94;99698.25;4481101;32;35004;-93
2022/01/17 01:20:49;;;;;;;;;;;;;;;5.65;52.89;99694.38;4482264;32;34953;-93
2022/01/17 01:28:43;;;;;;;;;;;;;;;6.40;50.36;99678.44;4481785;32;34873;-92
2022/01/17 01:31:18;;;;;;;;;;;;;;;6.61;49.87;99679.22;4482247;32;34194;-92
2022/01/17 01:33:53;;;;;;;;;;;;;;;6.20;51.29;99682.84;4479858;32;34402;-90
2022/01/17 01:36:27;;;;;;;;;;;;;;;6.45;50.36;99674.34;4482107;32;34052;-83
2022/01/17 01:38:54;;;;;;;;;;;;;;;6.36;50.16;99676.56;4481907;32;33698;-84
2022/01/17 01:41:22;;;;;;;;;;;;;;;6.86;48.93;99664.63;4480469;32;34420;-84
2022/01/17 01:43:49;;;;;;;;;;;;;;;6.03;51.05;99671.91;4481689;32;35405;-84
2022/01/17 01:46:19;;;;;;;;;;;;;;;6.34;50.48;99667.09;4480936;32;34481;-84
2022/01/17 01:48:47;;;;;;;;;;;;;;;6.74;49.33;99659.94;4483922;32;35141;-84
2022/01/17 01:51:15;;;;;;;;;;;;;;;6.61;49.19;99663.78;4483284;32;34170;-84
2022/01/17 01:53:42;;;;;;;;;;;;;;;6.57;49.12;99667.06;4483642;32;34272;-84
2022/01/17 01:56:10;;;;;;;;;;;;;;;6.81;48.82;99655.06;4484068;32;33523;-92
2022/01/17 01:58:37;;;;;;;;;;;;;;;6.14;50.38;99668.03;4484365;32;34070;-83
2022/01/17 02:01:04;;;;;;;;;;;;;;;6.11;50.60;99667.91;4482726;32;33934;-85
2022/01/17 02:03:32;;;;;;;;;;;;;;;6.09;50.51;99673.00;4484039;32;34321;-84
2022/01/17 02:05:59;;;;;;;;;;;;;;;6.00;51.22;99666.63;4483429;32;33448;-83
2022/01/17 02:08:27;;;;;;;;;;;;;;;5.44;52.54;99663.50;4483813;32;34711;-93
2022/01/17 02:10:55;;;;;;;;;;;;;;;6.18;50.61;99680.22;4483600;32;35393;-83
2022/01/17 02:13:22;;;;;;;;;;;;;;;5.39;52.95;99670.16;4483686;32;34070;-87
2022/01/17 02:15:49;;;;;;;;;;;;;;;6.00;51.74;99682.06;4484092;32;32874;-84
2022/01/17 02:18:29;;;;;;;;;;;;;;;6.37;50.88;99686.94;4483984;32;34927;-87
2022/01/17 02:21:19;;;;;;;;;;;;;;;6.55;50.23;99685.06;4482925;32;34068;-90
2022/01/17 02:23:47;;;;;;;;;;;;;;;6.30;50.47;99683.25;4472079;32;33747;-92
2022/01/17 02:26:15;;;;;;;;;;;;;;;6.57;49.89;99673.09;4483977;32;33260;-92
2022/01/17 02:28:49;;;;;;;;;;;;;;;6.61;50.00;99676.66;4483033;32;34323;-84
2022/01/17 02:31:17;;;;;;;;;;;;;;;6.98;48.90;99668.56;4483599;32;34604;-90
2022/01/17 02:33:44;;;;;;;;;;;;;;;6.27;50.39;99666.81;4483805;32;35234;-84
2022/01/17 02:36:11;;;;;;;;;;;;;;;7.26;48.28;99651.44;4483738;32;33852;-85
2022/01/17 02:38:39;;;;;;;;;;;;;;;7.40;47.48;99652.78;4482798;32;32840;-86
2022/01/17 02:41:06;;;;;;;;;;;;;;;6.74;49.53;99650.53;4474170;32;34115;-84
2022/01/17 02:43:34;;;;;;;;;;;;;;;6.60;49.60;99656.88;4482754;32;34516;-84
2022/01/17 02:48:29;;;;;;;;;;;;;;;6.63;49.69;99644.13;4483380;32;35030;-84
2022/01/17 02:50:57;;;;;;;;;;;;;;;5.41;53.10;99644.50;4483162;32;34558;-84
2022/01/17 02:53:25;;;;;;;;;;;;;;;6.40;50.37;99643.25;4482176;32;34496;-93
2022/01/17 02:55:52;;;;;;;;;;;;;;;6.40;50.30;99637.22;4483207;32;34263;-83
2022/01/17 02:58:20;;;;;;;;;;;;;;;6.37;50.59;99632.84;4482672;32;33947;-91
2022/01/17 03:00:49;;;;;;;;;;;;;;;6.90;48.96;99609.84;4483225;32;34509;-85
2022/01/17 03:03:17;;;;;;;;;;;;;;;6.45;49.82;99610.84;4482076;32;35163;-85
2022/01/17 03:05:44;;;;;;;;;;;;;;;6.73;49.45;99622.13;4483627;32;34166;-83
2022/01/17 03:08:12;;;;;;;;;;;;;;;6.73;49.00;99609.22;4482676;32;34891;-83
2022/01/17 03:10:43;;;;;;;;;;;;;;;6.66;49.29;99604.69;4483301;32;33038;-83
2022/01/17 03:13:18;;;;;;;;;;;;;;;5.92;50.90;99591.69;4477528;32;34433;-87
2022/01/17 03:15:47;;;;;;;;;;;;;;;6.31;50.29;99600.00;4470834;32;34330;-80
2022/01/17 03:18:14;;;;;;;;;;;;;;;5.53;51.60;99590.97;4483084;32;34235;-84
2022/01/17 03:20:41;;;;;;;;;;;;;;;5.97;50.99;99599.59;4483026;32;34590;-83
2022/01/17 03:23:09;;;;;;;;;;;;;;;6.31;49.81;99584.56;4483551;32;33948;-93
2022/01/17 03:25:36;;;;;;;;;;;;;;;5.91;51.22;99592.50;4483500;32;33007;-92
2022/01/17 03:28:03;;;;;;;;;;;;;;;6.18;50.08;99589.22;4482563;32;33320;-91
2022/01/17 03:30:33;;;;;;;;;;;;;;;5.88;50.99;99600.09;4481686;31;34091;-92
2022/01/17 03:33:04;;;;;;;;;;;;;;;6.33;50.23;99606.13;4482240;32;33753;-82
2022/01/17 03:35:32;;;;;;;;;;;;;;;6.10;50.40;99612.13;4481813;32;33458;-83
2022/01/17 03:37:59;;;;;;;;;;;;;;;6.43;49.47;99609.00;4483139;32;35028;-84
2022/01/17 03:40:26;;;;;;;;;;;;;;;6.20;49.72;99619.34;4483591;32;34388;-84
2022/01/17 03:42:53;;;;;;;;;;;;;;;5.78;50.89;99644.28;4483148;32;34594;-89
2022/01/17 03:45:21;;;;;;;;;;;;;;;6.74;48.82;99641.91;4482801;32;33632;-83
2022/01/17 03:47:48;;;;;;;;;;;;;;;7.57;46.90;99648.16;4482999;32;34169;-84
2022/01/17 03:50:19;;;;;;;;;;;;;;;6.50;48.91;99655.66;4482671;32;35332;-83
2022/01/17 03:52:47;;;;;;;;;;;;;;;6.83;48.12;99643.09;4481492;32;35024;-84
2022/01/17 03:55:15;;;;;;;;;;;;;;;6.80;48.44;99631.81;4481533;32;33629;-84
2022/01/17 03:57:44;;;;;;;;;;;;;;;7.85;45.84;99633.56;4482343;32;34021;-83
2022/01/17 04:00:16;;;;;;;;;;;;;;;7.61;46.36;99633.66;4483044;32;33867;-87
2022/01/17 04:02:43;;;;;;;;;;;;;;;8.01;45.13;99643.53;4482964;32;34634;-83
2022/01/17 04:05:11;;;;;;;;;;;;;;;7.61;46.01;99651.72;4482868;32;34201;-84
2022/01/17 04:07:38;;;;;;;;;;;;;;;8.09;45.25;99647.22;4482763;32;34521;-84
2022/01/17 04:10:06;;;;;;;;;;;;;;;7.68;45.85;99641.63;4483126;32;35108;-83
2022/01/17 04:12:33;;;;;;;;;;;;;;;7.50;46.31;99646.19;4481691;32;33994;-84
2022/01/17 04:15:00;;;;;;;;;;;;;;;7.82;46.04;99633.47;4482776;32;34195;-84
2022/01/17 04:17:29;;;;;;;;;;;;;;;7.44;46.87;99627.97;4482823;32;34971;-83
2022/01/17 04:20:03;;;;;;;;;;;;;;;8.57;44.46;99643.50;4482396;32;34189;-83
2022/01/17 04:22:34;;;;;;;;;;;;;;;8.41;44.75;99652.47;4474780;32;33615;-83
2022/01/17 04:25:02;;;;;;;;;;;;;;;7.72;46.08;99658.97;4482933;32;34239;-90
2022/01/17 04:27:29;;;;;;;;;;;;;;;7.54;46.80;99659.28;4478517;32;35075;-84
2022/01/17 04:29:57;;;;;;;;;;;;;;;7.59;46.60;99661.12;4482822;32;34400;-87
2022/01/17 04:32:24;;;;;;;;;;;;;;;6.27;49.91;99672.81;4482330;32;35234;-84
2022/01/17 04:34:51;;;;;;;;;;;;;;;7.54;47.02;99674.75;4482905;32;33690;-89
2022/01/17 04:37:18;;;;;;;;;;;;;;;7.97;45.95;99675.25;4482589;32;34298;-85
2022/01/17 04:39:46;;;;;;;;;;;;;;;9.41;42.34;99650.91;4482444;32;35289;-85
2022/01/17 04:42:13;;;;;;;;;;;;;;;9.38;42.71;99650.81;4482393;32;35197;-90
2022/01/17 04:47:29;;;;;;;;;;;;;;;8.55;44.36;99643.44;4482324;32;34086;-93
2022/01/17 04:49:56;;;;;;;;;;;;;;;8.49;44.62;99644.16;4482266;32;35403;-83
2022/01/17 04:52:25;;;;;;;;;;;;;;;9.19;42.69;99623.59;4482290;32;33221;-83
2022/01/17 04:54:54;;;;;;;;;;;;;;;8.97;43.37;99620.44;4482547;32;33437;-92
2022/01/17 04:57:21;;;;;;;;;;;;;;;8.19;45.12;99626.00;4482111;32;34341;-92
2022/01/17 04:59:52;;;;;;;;;;;;;;;9.91;41.51;99617.56;4482097;32;34268;-87
2022/01/17 05:02:20;;;;;;;;;;;;;;;8.93;43.34;99617.75;4480197;32;34351;-85
2022/01/17 05:04:48;;;;;;;;;;;;;;;8.90;43.70;99612.50;4482304;32;33665;-91
2022/01/17 05:07:15;;;;;;;;;;;;;;;9.79;41.78;99609.53;4474986;32;176340;-91
2022/01/17 05:09:43;;;;;;;;;;;;;;;9.49;42.35;99619.19;4480045;32;34351;-84
2022/01/17 05:12:12;;;;;;;;;;;;;;;9.03;43.19;99622.34;4481608;32;32894;-86
2022/01/17 05:14:42;;;;;;;;;;;;;;;9.62;41.90;99628.16;4482009;32;33340;-86
2022/01/17 05:17:24;;;;;;;;;;;;;;;9.98;41.26;99624.66;4481937;32;33955;-90
2022/01/17 05:19:57;;;;;;;;;;;;;;;10.06;40.97;99630.88;4481997;32;33902;-86
2022/01/17 05:22:26;;;;;;;;;;;;;;;10.14;40.22;99629.31;4477760;32;34624;-86
2022/01/17 05:24:54;;;;;;;;;;;;;;;9.85;41.27;99630.38;4482948;32;34259;-89
2022/01/17 05:27:21;;;;;;;;;;;;;;;8.63;43.53;99634.19;4483715;32;33434;-90
2022/01/17 05:29:48;;;;;;;;;;;;;;;7.96;46.01;99650.28;4483781;32;34434;-93
2022/01/17 05:32:16;;;;;;;;;;;;;;;7.32;47.44;99639.62;4481683;32;36138;-92
2022/01/17 05:34:44;;;;;;;;;;;;;;;7.04;48.21;99642.09;4483206;32;33718;-89
2022/01/17 05:37:13;;;;;;;;;;;;;;;8.85;43.81;99621.84;4483675;32;34952;-85
2022/01/17 05:39:42;;;;;;;;;;;;;;;7.99;45.72;99619.34;4482130;32;34377;-93
2022/01/17 05:42:14;;;;;;;;;;;;;;;6.36;50.04;99622.47;4478775;32;34220;-90
2022/01/17 05:44:42;;;;;;;;;;;;;;;7.88;46.34;99613.91;4483992;32;33516;-90
2022/01/17 05:47:10;;;;;;;;;;;;;;;8.57;44.80;99600.44;4483005;32;33962;-89
2022/01/17 05:49:37;;;;;;;;;;;;;;;8.62;44.59;99605.72;4483293;32;35219;-89
2022/01/17 05:52:05;;;;;;;;;;;;;;;8.99;43.72;99597.25;4484225;32;35338;-92
2022/01/17 05:54:32;;;;;;;;;;;;;;;7.91;45.74;99607.94;4483833;32;34923;-85
2022/01/17 05:56:59;;;;;;;;;;;;;;;7.58;46.74;99598.34;4484100;32;34756;-94
2022/01/17 05:59:26;;;;;;;;;;;;;;;7.14;48.00;99604.63;4483882;32;33831;-93
2022/01/17 06:01:53;;;;;;;;;;;;;;;8.50;44.72;99595.91;4484182;32;34621;-93
2022/01/17 06:04:21;;;;;;;;;;;;;;;9.15;43.21;99595.91;4484105;32;33413;-94
2022/01/17 06:06:48;;;;;;;;;;;;;;;8.01;45.08;99589.31;4483822;31;34610;-86
2022/01/17 06:09:16;;;;;;;;;;;;;;;8.26;45.15;99590.91;4477867;32;34042;-86
2022/01/17 06:11:44;;;;;;;;;;;;;;;8.44;44.83;99600.91;4484215;32;35168;-92
2022/01/17 06:14:16;;;;;;;;;;;;;;;8.83;43.82;99595.09;4484233;32;34042;-93
2022/01/17 06:16:44;;;;;;;;;;;;;;;8.42;44.62;99598.28;4484077;32;33861;-86
2022/01/17 06:19:11;;;;;;;;;;;;;;;8.45;44.73;99594.94;4483876;32;34352;-87
2022/01/17 06:21:38;;;;;;;;;;;;;;;9.20;43.07;99599.47;4484093;32;35081;-92
2022/01/17 06:24:06;;;;;;;;;;;;;;;9.60;41.98;99603.91;4484176;32;33781;-88
2022/01/17 06:26:33;;;;;;;;;;;;;;;9.47;42.25;99609.63;4483846;31;33981;-86
2022/01/17 06:29:00;;;;;;;;;;;;;;;8.45;44.51;99603.53;4482758;32;34106;-90
2022/01/17 06:31:29;;;;;;;;;;;;;;;8.84;43.49;99597.72;4483894;32;34440;-86
2022/01/17 06:33:57;;;;;;;;;;;;;;;9.31;42.61;99604.94;4483116;32;33186;-93
2022/01/17 06:36:24;;;;;;;;;;;;;;;9.33;42.40;99598.09;4483575;32;33989;-92
2022/01/17 06:38:51;;;;;;;;;;;;;;;9.34;42.46;99589.47;4483129;32;34905;-94
2022/01/17 06:41:19;;;;;;;;;;;;;;;8.15;45.22;99592.31;4483768;32;35370;-86
2022/01/17 06:43:46;;;;;;;;;;;;;;;8.28;45.07;99584.94;4483798;32;34340;-89
2022/01/17 06:46:14;;;;;;;;;;;;;;;8.01;45.77;99584.16;4483455;32;34703;-82
2022/01/17 06:48:42;;;;;;;;;;;;;;;7.21;47.41;99571.34;4483900;32;35285;-91
2022/01/17 06:51:09;;;;;;;;;;;;;;;7.94;45.95;99571.88;4483790;32;34442;-85
2022/01/17 06:53:36;;;;;;;;;;;;;;;8.16;45.36;99558.75;4482513;32;34431;-91
2022/01/17 06:56:04;;;;;;;;;;;;;;;7.77;46.03;99571.38;4483676;32;35048;-86
2022/01/17 06:58:31;;;;;;;;;;;;;;;7.80;46.45;99563.72;4483772;32;35363;-85
2022/01/17 07:00:58;;;;;;;;;;;;;;;6.99;48.50;99571.47;4483678;32;34045;-92
2022/01/17 07:03:26;;;;;;;;;;;;;;;6.95;48.40;99551.56;4483857;32;33830;-87
2022/01/17 07:05:53;;;;;;;;;;;;;;;7.34;47.68;99554.56;4482485;32;33937;-87
2022/01/17 07:08:20;;;;;;;;;;;;;;;7.61;46.76;99549.38;4483794;32;33977;-88
2022/01/17 07:10:48;;;;;;;;;;;;;;;6.69;49.20;99548.97;4483504;32;33975;-86
2022/01/17 07:13:15;;;;;;;;;;;;;;;6.50;49.72;99536.28;4483865;32;34225;-92
2022/01/17 07:15:42;;;;;;;;;;;;;;;7.32;48.23;99535.59;4482433;32;34751;-85
2022/01/17 07:18:12;;;;;;;;;;;;;;;7.24;48.02;99542.22;4483714;32;34826;-90
2022/01/17 07:20:39;;;;;;;;;;;;;;;8.19;45.96;99548.53;4483737;32;35254;-86
2022/01/17 07:23:06;;;;;;;;;;;;;;;8.52;44.93;99534.81;4483820;32;33798;-93
2022/01/17 07:25:38;;;;;;;;;;;;;;;6.98;48.21;99551.69;4483986;32;33529;-86
2022/01/17 07:28:06;;;;;;;;;;;;;;;8.38;45.37;99549.09;4483572;32;34037;-89
2022/01/17 07:30:34;;;;;;;;;;;;;;;8.57;45.06;99561.66;4482310;32;34615;-87
2022/01/17 07:33:01;;;;;;;;;;;;;;;8.65;44.64;99580.84;4483816;32;33018;-86
2022/01/17 07:35:28;;;;;;;;;;;;;;;7.56;47.27;99589.66;4482451;32;33520;-88
2022/01/17 07:37:56;;;;;;;;;;;;;;;7.46;47.89;99588.50;4482451;32;34400;-86
2022/01/17 07:40:23;;;;;;;;;;;;;;;7.86;46.90;99604.34;4483787;32;35154;-86
2022/01/17 07:42:51;;;;;;;;;;;;;;;7.19;48.69;99619.41;4483471;32;33777;-94
2022/01/17 07:45:20;;;;;;;;;;;;;;;7.12;48.73;99638.06;4483256;32;34867;-85
2022/01/17 07:50:18;;;;;;;;;;;;;;;7.68;47.55;99667.44;4482264;32;34441;-93
2022/01/17 07:52:47;;;;;;;;;;;;;;;7.72;47.39;99658.09;4469337;32;33542;-86
2022/01/17 07:55:14;;;;;;;;;;;;;;;7.82;47.10;99625.72;4483458;32;34055;-86
2022/01/17 07:57:41;;;;;;;;;;;;;;;8.66;45.50;99602.38;4483414;32;34141;-85
2022/01/17 08:00:20;;;;;;;;;;;;;;;7.94;46.48;99592.53;4483517;32;34383;-86
2022/01/17 08:02:47;;;;;;;;;;;;;;;7.30;48.53;99589.69;4483343;32;33281;-85
2022/01/17 08:05:15;;;;;;;;;;;;;;;8.57;45.57;99597.84;4483416;32;35101;-86
2022/01/17 08:07:43;;;;;;;;;;;;;;;8.74;45.00;99609.50;4483413;32;34448;-86
2022/01/17 08:10:12;;;;;;;;;;;;;;;8.40;45.97;99599.94;4481870;32;35287;-93
2022/01/17 08:12:40;;;;;;;;;;;;;;;7.05;49.26;99584.56;4483610;32;34448;-92
2022/01/17 08:15:08;;;;;;;;;;;;;;;7.85;47.52;99572.50;4482400;32;33965;-81
2022/01/17 08:17:35;;;;;;;;;;;;;;;7.00;49.13;99570.62;4481883;32;35198;-88
2022/01/17 08:20:04;;;;;;;;;;;;;;;7.87;47.52;99557.91;4483290;32;35112;-91
2022/01/17 08:22:31;;;;;;;;;;;;;;;8.39;46.53;99556.00;4483228;32;33400;-86
2022/01/17 08:24:58;;;;;;;;;;;;;;;8.11;46.82;99531.06;4482978;32;34536;-86
2022/01/17 08:27:26;;;;;;;;;;;;;;;7.29;48.96;99538.06;4482070;32;34916;-87
2022/01/17 08:29:54;;;;;;;;;;;;;;;8.89;45.20;99531.47;4483198;32;34421;-90
2022/01/17 08:32:42;;;;;;;;;;;;;;;8.28;46.35;99533.28;4483420;32;34661;-86
2022/01/17 08:35:09;;;;;;;;;;;;;;;8.09;46.93;99541.34;4483104;32;34277;-86
2022/01/17 08:37:37;;;;;;;;;;;;;;;8.37;46.25;99540.47;4482861;32;34712;-86
2022/01/17 08:40:05;;;;;;;;;;;;;;;8.56;45.86;99544.41;4481870;32;34194;-86
2022/01/17 08:42:36;;;;;;;;;;;;;;;7.91;46.79;99569.19;4483337;32;34333;-86
2022/01/17 08:45:04;;;;;;;;;;;;;;;7.83;47.74;99579.28;4482860;32;33991;-86
2022/01/17 08:47:32;;;;;;;;;;;;;;;8.24;46.83;99602.88;4482934;32;35301;-92
2022/01/17 08:49:59;;;;;;;;;;;;;;;7.83;47.33;99593.91;4483051;32;34395;-87
2022/01/17 08:52:27;;;;;;;;;;;;;;;7.89;47.34;99600.16;4481374;32;34035;-92
2022/01/17 08:54:54;;;;;;;;;;;;;;;8.15;46.86;99588.00;4481631;32;34245;-93
2022/01/17 08:57:21;;;;;;;;;;;;;;;7.88;48.12;99567.44;4482164;32;34129;-93
2022/01/17 08:59:50;;;;;;;;;;;;;;;8.45;46.32;99556.16;4482874;32;34533;-86
2022/01/17 09:02:18;;;;;;;;;;;;;;;7.15;49.53;99547.94;4481689;32;33558;-93
2022/01/17 09:04:45;;;;;;;;;;;;;;;7.83;48.23;99516.47;4482815;32;33904;-81
2022/01/17 09:07:14;;;;;;;;;;;;;;;6.49;52.20;99513.94;4482260;32;34563;-86
2022/01/17 09:09:43;;;;;;;;;;;;;;;6.76;51.58;99545.78;4482770;32;34399;-86
2022/01/17 09:12:11;;;;;;;;;;;;;;;6.71;52.19;99521.59;4482850;32;33726;-85
2022/01/17 09:14:38;;;;;;;;;;;;;;;7.24;50.94;99488.94;4482603;32;33873;-85
2022/01/17 09:17:07;;;;;;;;;;;;;;;7.12;51.17;99505.69;4481494;32;34233;-80
2022/01/17 09:19:35;;;;;;;;;;;;;;;6.49;52.64;99481.34;4482680;32;34497;-86
2022/01/17 09:22:02;;;;;;;;;;;;;;;7.12;50.78;99514.31;4482574;32;33728;-86
2022/01/17 09:24:30;;;;;;;;;;;;;;;7.38;50.11;99509.97;4482708;31;34570;-86
2022/01/17 09:26:57;;;;;;;;;;;;;;;7.11;50.26;99507.41;4482543;32;34094;-87
2022/01/17 09:29:24;;;;;;;;;;;;;;;6.94;51.16;99500.84;4482485;32;34112;-92
2022/01/17 09:31:52;;;;;;;;;;;;;;;7.37;49.90;99489.31;4481036;31;33730;-86
2022/01/17 09:34:19;;;;;;;;;;;;;;;7.61;49.00;99502.94;4482411;32;33932;-87
2022/01/17 09:36:47;;;;;;;;;;;;;;;6.98;50.75;99510.44;4482364;32;33970;-90
2022/01/17 09:39:15;;;;;;;;;;;;;;;7.22;50.12;99490.56;4482406;32;34182;-88
2022/01/17 09:41:42;;;;;;;;;;;;;;;7.34;49.57;99484.03;4482393;32;34052;-87
2022/01/17 09:44:09;;;;;;;;;;;;;;;8.05;48.03;99483.56;4482435;32;34506;-86
2022/01/17 09:46:41;;;;;;;;;;;;;;;7.99;47.80;99475.69;4481322;32;34024;-86
2022/01/17 09:49:15;;;;;;;;;;;;;;;7.29;49.41;99482.22;4480788;32;34352;-93
2022/01/17 09:54:29;;;;;;;;;;;;;;;7.68;48.62;99435.19;4482055;32;33943;-89
2022/01/17 09:56:57;;;;;;;;;;;;;;;7.57;48.47;99440.03;4482344;32;35408;-86
2022/01/17 09:59:24;;;;;;;;;;;;;;;8.14;47.34;99435.59;4482100;32;34154;-86
2022/01/17 10:01:51;;;;;;;;;;;;;;;7.34;48.68;99437.63;4481956;32;33653;-87
2022/01/17 10:04:19;;;;;;;;;;;;;;;7.88;47.87;99434.88;4482034;32;34090;-91
2022/01/17 10:06:58;;;;;;;;;;;;;;;8.04;47.64;99432.78;4481688;32;34834;-87
2022/01/17 10:09:26;;;;;;;;;;;;;;;9.67;43.54;99437.53;4483033;32;34281;-91
2022/01/17 10:12:00;;;;;;;;;;;;;;;9.07;44.59;99437.94;4484148;31;33635;-86
2022/01/17 10:14:30;;;;;;;;;;;;;;;9.33;43.95;99433.38;4484078;32;34030;-81
2022/01/17 10:16:57;;;;;;;;;;;;;;;9.26;43.83;99419.41;4484068;32;35342;-92
2022/01/17 10:19:26;;;;;;;;;;;;;;;8.86;44.64;99440.03;4484015;31;34417;-86
2022/01/17 10:21:55;;;;;;;;;;;;;;;9.13;44.10;99437.19;4482678;32;33616;-87
2022/01/17 10:24:29;;;;;;;;;;;;;;;8.09;46.24;99419.97;4484179;32;35006;-93
2022/01/17 10:35:13;;;;;;;;;;;;;;;9.71;42.79;99386.72;4482844;32;34261;-93
2022/01/17 10:37:40;;;;;;;;;;;;;;;9.98;42.04;99387.22;4482647;32;34241;-85
2022/01/17 10:40:10;;;;;;;;;;;;;;;9.67;42.80;99385.78;4482838;32;34378;-86
2022/01/17 10:42:42;;;;;;;;;;;;;;;10.20;41.74;99372.94;4484246;32;34370;-93
2022/01/17 10:45:14;;;;;;;;;;;;;;;9.10;44.24;99369.91;4483909;32;33976;-87
2022/01/17 10:47:45;;;;;;;;;;;;;;;8.57;45.56;99364.41;4483902;32;34189;-93
2022/01/17 10:50:20;;;;;;;;;;;;;;;9.11;44.57;99369.06;4482312;32;35027;-90
2022/01/17 10:52:49;;;;;;;;;;;;;;;8.95;45.10;99375.63;4482680;32;32583;-86
2022/01/17 10:55:16;;;;;;;;;;;;;;;8.94;45.29;99364.41;4482632;32;35110;-86
2022/01/17 10:57:45;;;;;;;;;;;;;;;9.97;43.30;99363.91;4483604;32;33734;-86
2022/01/17 11:00:13;;;;;;;;;;;;;;;9.27;44.82;99342.66;4483765;31;34571;-94
2022/01/17 11:02:43;;;;;;;;;;;;;;;9.71;43.98;99351.31;4483670;31;34041;-87
2022/01/17 11:05:12;;;;;;;;;;;;;;;8.35;47.08;99375.87;4483837;31;33988;-86
2022/01/17 11:07:44;;;;;;;;;;;;;;;8.57;47.12;99331.66;4483620;31;34197;-86
2022/01/17 11:10:12;;;;;;;;;;;;;;;8.81;46.10;99320.13;4482365;32;34646;-93
2022/01/17 11:12:39;;;;;;;;;;;;;;;8.73;46.35;99312.22;4483685;31;34382;-93
2022/01/17 11:15:07;;;;;;;;;;;;;;;8.62;46.74;99311.97;4483704;32;33648;-91
2022/01/17 11:17:37;;;;;;;;;;;;;;;9.36;44.64;99288.53;4482208;32;34405;-86
2022/01/17 11:20:07;;;;;;;;;;;;;;;9.95;43.80;99298.25;4483373;32;35183;-82
2022/01/17 11:22:35;;;;;;;;;;;;;;;8.75;45.68;99284.66;4483719;32;33640;-86
2022/01/17 11:25:04;;;;;;;;;;;;;;;8.76;46.04;99279.56;4482315;32;33819;-81
2022/01/17 11:27:32;;;;;;;;;;;;;;;8.48;46.54;99270.28;4483541;32;33871;-91
2022/01/17 11:30:00;;;;;;;;;;;;;;;8.64;46.68;99284.47;4483568;31;34716;-86
2022/01/17 11:32:27;;;;;;;;;;;;;;;8.09;48.13;99267.63;4483281;32;34360;-85
2022/01/17 11:34:57;;;;;;;;;;;;;;;8.69;46.91;99275.09;4483629;32;33939;-82
2022/01/17 11:37:25;;;;;;;;;;;;;;;9.12;45.28;99275.97;4483748;32;33577;-84
2022/01/17 11:39:54;;;;;;;;;;;;;;;8.05;47.91;99283.87;4482280;32;34409;-86
2022/01/17 11:42:41;;;;;;;;;;;;;;;9.41;44.71;99286.03;4482248;31;34467;-86
2022/01/17 11:45:23;;;;;;;;;;;;;;;9.09;45.18;99287.97;4483732;32;35400;-85
2022/01/17 11:47:53;;;;;;;;;;;;;;;9.11;45.19;99292.34;4483258;32;34256;-92
2022/01/17 11:50:27;;;;;;;;;;;;;;;9.08;45.21;99281.06;4483186;32;34192;-93
2022/01/17 11:52:57;;;;;;;;;;;;;;;9.04;45.08;99279.25;4483315;32;33559;-86
2022/01/17 11:55:43;;;;;;;;;;;;;;;9.00;45.50;99304.19;4483507;32;33485;-85
2022/01/17 11:58:24;;;;;;;;;;;;;;;9.49;44.49;99280.16;4483439;32;34485;-86
2022/01/17 12:00:58;;;;;;;;;;;;;;;9.47;44.44;99268.03;4483086;32;34341;-92
2022/01/17 12:03:26;;;;;;;;;;;;;;;8.36;47.17;99257.06;4482409;32;34465;-83
2022/01/17 12:05:55;;;;;;;;;;;;;;;8.67;45.96;99261.25;4482151;32;35085;-86
2022/01/17 12:08:23;;;;;;;;;;;;;;;9.05;45.02;99266.34;4482499;32;35462;-92
2022/01/17 12:10:57;;;;;;;;;;;;;;;9.01;45.21;99229.19;4483347;32;34652;-86
2022/01/17 12:13:33;;;;;;;;;;;;;;;8.85;45.72;99223.72;4483275;32;34506;-91
2022/01/17 12:16:19;;;;;;;;;;;;;;;9.31;44.80;99247.88;4483268;32;34100;-92
2022/01/17 12:18:54;;;;;;;;;;;;;;;9.03;45.38;99237.00;4482501;32;34412;-86
2022/01/17 12:21:23;;;;;;;;;;;;;;;9.00;45.10;99252.47;4483355;32;34774;-81
2022/01/17 12:23:51;;;;;;;;;;;;;;;8.40;46.26;99239.97;4483190;32;33719;-80
2022/01/17 12:26:26;;;;;;;;;;;;;;;8.46;46.34;99261.66;4483348;32;33918;-86
2022/01/17 12:28:54;;;;;;;;;;;;;;;8.52;46.17;99206.63;4483329;32;35266;-92
2022/01/17 12:31:36;;;;;;;;;;;;;;;7.97;47.57;99205.38;4481476;31;34432;-92
2022/01/17 12:34:18;;;;;;;;;;;;;;;8.13;47.25;99176.47;4483436;32;34235;-92
2022/01/17 12:36:48;;;;;;;;;;;;;;;8.74;45.75;99172.66;4483032;31;33817;-87
2022/01/17 12:39:17;;;;;;;;;;;;;;;7.99;47.80;99173.59;4481956;32;33927;-93
2022/01/17 12:41:46;;;;;;;;;;;;;;;7.91;47.71;99169.94;4482912;32;35338;-86
2022/01/17 12:44:14;;;;;;;;;;;;;;;8.69;45.88;99189.78;4482930;32;33587;-87
2022/01/17 12:46:42;;;;;;;;;;;;;;;9.01;45.46;99187.81;4482922;32;35016;-87
2022/01/17 12:49:10;;;;;;;;;;;;;;;8.86;45.93;99186.66;4482824;32;34039;-87
2022/01/17 12:51:41;;;;;;;;;;;;;;;8.65;46.39;99187.97;4482998;32;34518;-86
2022/01/17 12:54:11;;;;;;;;;;;;;;;8.62;46.56;99187.91;4483196;32;34322;-86
2022/01/17 12:56:45;;;;;;;;;;;;;;;8.55;46.98;99195.50;4482826;32;33601;-86
2022/01/17 12:59:13;;;;;;;;;;;;;;;8.80;46.23;99196.91;4481407;32;34503;-93
2022/01/17 13:01:42;;;;;;;;;;;;;;;8.44;46.47;99195.28;4482880;32;34275;-90
2022/01/17 13:04:12;;;;;;;;;;;;;;;8.15;47.55;99169.66;4481577;32;34387;-87
2022/01/17 13:06:40;;;;;;;;;;;;;;;8.53;46.27;99161.91;4482864;32;33863;-86
2022/01/17 13:09:08;;;;;;;;;;;;;;;8.99;44.98;99171.44;4482925;32;34469;-86
2022/01/17 13:11:37;;;;;;;;;;;;;;;9.03;44.89;99174.94;4481696;32;34333;-86
2022/01/17 13:14:04;;;;;;;;;;;;;;;8.23;46.44;99170.69;4481311;32;34504;-88
2022/01/17 13:16:34;;;;;;;;;;;;;;;8.16;47.22;99179.16;4482628;32;34737;-87
2022/01/17 13:19:03;;;;;;;;;;;;;;;8.59;46.13;99162.00;4481689;32;35141;-92
2022/01/17 13:21:31;;;;;;;;;;;;;;;8.36;46.56;99160.63;4481605;32;34075;-88
2022/01/17 13:24:15;;;;;;;;;;;;;;;8.59;46.65;99181.81;4482705;32;34103;-86
2022/01/17 13:26:42;;;;;;;;;;;;;;;8.17;47.20;99146.44;4466747;32;34354;-86
2022/01/17 13:29:10;;;;;;;;;;;;;;;8.49;46.41;99155.78;4466476;32;34918;-86
2022/01/17 13:31:40;;;;;;;;;;;;;;;8.21;47.12;99143.94;4467268;32;33690;-89
2022/01/17 13:34:11;;;;;;;;;;;;;;;8.52;46.25;99134.28;4465600;32;32938;-86